sensor_id;sensor_type;location;lat;lon;timestamp;P1;durP1;ratioP1;P2;durP2;ratioP2
1436;SDS011;712;51.026;13.792;2023-06-05T00:01:03;4.88;;;1.35;;
1436;SDS011;712;51.026;13.792;2023-06-05T00:03:28;4.57;;;1.60;;
1436;SDS011;712;51.026;13.792;2023-06-05T00:05:54;4.50;;;1.45;;
1436;SDS011;712;51.026;13.792;2023-06-05T00:08:20;4.57;;;1.43;;
1436;SDS011;712;51.026;13.792;2023-06-05T00:10:45;4.72;;;1.75;;
1436;SDS011;712;51.026;13.792;2023-06-05T00:13:10;6.73;;;1.73;;
1436;SDS011;712;51.026;13.792;2023-06-05T00:15:35;4.65;;;1.58;;
1436;SDS011;712;51.026;13.792;2023-06-05T00:18:02;6.35;;;1.55;;
1436;SDS011;712;51.026;13.792;2023-06-05T00:20:28;4.97;;;1.60;;
1436;SDS011;712;51.026;13.792;2023-06-05T00:22:54;3.70;;;1.30;;
1436;SDS011;712;51.026;13.792;2023-06-05T00:25:19;4.57;;;1.67;;
1436;SDS011;712;51.026;13.792;2023-06-05T00:27:45;6.40;;;1.63;;
1436;SDS011;712;51.026;13.792;2023-06-05T00:30:10;5.78;;;2.00;;
1436;SDS011;712;51.026;13.792;2023-06-05T00:32:36;3.45;;;1.20;;
1436;SDS011;712;51.026;13.792;2023-06-05T00:35:01;4.18;;;1.42;;
1436;SDS011;712;51.026;13.792;2023-06-05T00:37:27;5.10;;;1.60;;
1436;SDS011;712;51.026;13.792;2023-06-05T00:39:52;4.15;;;1.50;;
1436;SDS011;712;51.026;13.792;2023-06-05T00:42:17;3.87;;;1.30;;
1436;SDS011;712;51.026;13.792;2023-06-05T00:44:42;5.13;;;1.70;;
1436;SDS011;712;51.026;13.792;2023-06-05T00:47:07;5.88;;;1.42;;
1436;SDS011;712;51.026;13.792;2023-06-05T00:49:32;3.97;;;1.40;;
1436;SDS011;712;51.026;13.792;2023-06-05T00:51:57;3.53;;;1.38;;
1436;SDS011;712;51.026;13.792;2023-06-05T00:54:23;5.75;;;1.65;;
1436;SDS011;712;51.026;13.792;2023-06-05T00:56:48;5.60;;;1.90;;
1436;SDS011;712;51.026;13.792;2023-06-05T00:59:13;4.28;;;1.50;;
1436;SDS011;712;51.026;13.792;2023-06-05T01:01:39;5.30;;;1.80;;
1436;SDS011;712;51.026;13.792;2023-06-05T01:04:05;4.70;;;1.63;;
1436;SDS011;712;51.026;13.792;2023-06-05T01:06:30;5.22;;;1.73;;
1436;SDS011;712;51.026;13.792;2023-06-05T01:08:56;4.50;;;1.40;;
1436;SDS011;712;51.026;13.792;2023-06-05T01:11:24;4.13;;;1.52;;
1436;SDS011;712;51.026;13.792;2023-06-05T01:13:53;4.10;;;1.52;;
1436;SDS011;712;51.026;13.792;2023-06-05T01:16:19;5.93;;;1.70;;
1436;SDS011;712;51.026;13.792;2023-06-05T01:18:44;4.40;;;1.63;;
1436;SDS011;712;51.026;13.792;2023-06-05T01:21:11;5.10;;;1.60;;
1436;SDS011;712;51.026;13.792;2023-06-05T01:23:42;4.75;;;1.58;;
1436;SDS011;712;51.026;13.792;2023-06-05T01:26:09;4.03;;;1.50;;
1436;SDS011;712;51.026;13.792;2023-06-05T01:28:35;5.10;;;1.40;;
1436;SDS011;712;51.026;13.792;2023-06-05T01:31:08;4.25;;;1.42;;
1436;SDS011;712;51.026;13.792;2023-06-05T01:36:09;4.40;;;1.50;;
1436;SDS011;712;51.026;13.792;2023-06-05T01:41:00;4.03;;;1.30;;
1436;SDS011;712;51.026;13.792;2023-06-05T01:43:26;3.88;;;1.40;;
1436;SDS011;712;51.026;13.792;2023-06-05T01:45:52;4.47;;;1.43;;
1436;SDS011;712;51.026;13.792;2023-06-05T01:48:18;4.43;;;1.30;;
1436;SDS011;712;51.026;13.792;2023-06-05T01:50:43;6.70;;;1.50;;
1436;SDS011;712;51.026;13.792;2023-06-05T01:53:08;4.60;;;1.57;;
1436;SDS011;712;51.026;13.792;2023-06-05T01:55:34;4.05;;;1.30;;
1436;SDS011;712;51.026;13.792;2023-06-05T01:58:04;4.63;;;1.45;;
1436;SDS011;712;51.026;13.792;2023-06-05T02:00:29;5.47;;;1.33;;
1436;SDS011;712;51.026;13.792;2023-06-05T02:02:54;3.78;;;1.48;;
1436;SDS011;712;51.026;13.792;2023-06-05T02:05:19;3.50;;;1.42;;
1436;SDS011;712;51.026;13.792;2023-06-05T02:07:48;6.95;;;1.67;;
1436;SDS011;712;51.026;13.792;2023-06-05T02:10:23;4.45;;;1.40;;
1436;SDS011;712;51.026;13.792;2023-06-05T02:12:48;5.63;;;1.40;;
1436;SDS011;712;51.026;13.792;2023-06-05T02:15:13;4.20;;;1.30;;
1436;SDS011;712;51.026;13.792;2023-06-05T02:17:39;6.90;;;1.75;;
1436;SDS011;712;51.026;13.792;2023-06-05T02:20:10;6.25;;;1.50;;
1436;SDS011;712;51.026;13.792;2023-06-05T02:22:37;4.80;;;1.10;;
1436;SDS011;712;51.026;13.792;2023-06-05T02:25:02;4.10;;;1.48;;
1436;SDS011;712;51.026;13.792;2023-06-05T02:27:27;4.10;;;1.30;;
1436;SDS011;712;51.026;13.792;2023-06-05T02:29:52;4.63;;;1.30;;
1436;SDS011;712;51.026;13.792;2023-06-05T02:32:17;4.23;;;1.30;;
1436;SDS011;712;51.026;13.792;2023-06-05T02:34:43;6.90;;;1.42;;
1436;SDS011;712;51.026;13.792;2023-06-05T02:37:12;4.22;;;1.30;;
1436;SDS011;712;51.026;13.792;2023-06-05T02:39:37;4.50;;;1.48;;
1436;SDS011;712;51.026;13.792;2023-06-05T02:42:02;3.70;;;1.25;;
1436;SDS011;712;51.026;13.792;2023-06-05T02:44:27;4.30;;;1.50;;
1436;SDS011;712;51.026;13.792;2023-06-05T02:46:53;3.75;;;1.30;;
1436;SDS011;712;51.026;13.792;2023-06-05T02:49:18;3.90;;;1.38;;
1436;SDS011;712;51.026;13.792;2023-06-05T02:51:43;4.53;;;1.40;;
1436;SDS011;712;51.026;13.792;2023-06-05T02:54:09;3.72;;;1.25;;
1436;SDS011;712;51.026;13.792;2023-06-05T02:56:34;5.38;;;1.70;;
1436;SDS011;712;51.026;13.792;2023-06-05T02:58:59;5.88;;;1.60;;
1436;SDS011;712;51.026;13.792;2023-06-05T03:01:27;5.22;;;1.40;;
1436;SDS011;712;51.026;13.792;2023-06-05T03:04:00;3.80;;;1.35;;
1436;SDS011;712;51.026;13.792;2023-06-05T03:06:27;4.10;;;1.40;;
1436;SDS011;712;51.026;13.792;2023-06-05T03:08:53;7.05;;;1.60;;
1436;SDS011;712;51.026;13.792;2023-06-05T03:11:20;4.28;;;1.40;;
1436;SDS011;712;51.026;13.792;2023-06-05T03:13:46;4.53;;;1.52;;
1436;SDS011;712;51.026;13.792;2023-06-05T03:16:11;5.03;;;1.40;;
1436;SDS011;712;51.026;13.792;2023-06-05T03:21:03;4.97;;;1.50;;
1436;SDS011;712;51.026;13.792;2023-06-05T03:23:28;4.33;;;1.60;;
1436;SDS011;712;51.026;13.792;2023-06-05T03:25:54;5.18;;;1.45;;
1436;SDS011;712;51.026;13.792;2023-06-05T03:28:19;5.55;;;1.58;;
1436;SDS011;712;51.026;13.792;2023-06-05T03:30:45;5.28;;;1.40;;
1436;SDS011;712;51.026;13.792;2023-06-05T03:33:10;4.30;;;1.40;;
1436;SDS011;712;51.026;13.792;2023-06-05T03:35:36;3.90;;;1.40;;
1436;SDS011;712;51.026;13.792;2023-06-05T03:38:01;5.90;;;1.30;;
1436;SDS011;712;51.026;13.792;2023-06-05T03:40:26;5.68;;;1.80;;
1436;SDS011;712;51.026;13.792;2023-06-05T03:42:51;5.13;;;1.85;;
1436;SDS011;712;51.026;13.792;2023-06-05T03:45:17;5.00;;;1.50;;
1436;SDS011;712;51.026;13.792;2023-06-05T03:47:43;4.57;;;1.65;;
1436;SDS011;712;51.026;13.792;2023-06-05T03:50:10;4.50;;;1.48;;
1436;SDS011;712;51.026;13.792;2023-06-05T03:52:35;4.80;;;1.30;;
1436;SDS011;712;51.026;13.792;2023-06-05T03:55:02;4.15;;;1.48;;
1436;SDS011;712;51.026;13.792;2023-06-05T03:57:29;5.07;;;1.67;;
1436;SDS011;712;51.026;13.792;2023-06-05T03:59:54;3.60;;;1.50;;
1436;SDS011;712;51.026;13.792;2023-06-05T04:02:20;4.85;;;1.50;;
1436;SDS011;712;51.026;13.792;2023-06-05T04:04:45;4.17;;;1.30;;
1436;SDS011;712;51.026;13.792;2023-06-05T04:07:10;5.85;;;1.70;;
1436;SDS011;712;51.026;13.792;2023-06-05T04:09:36;4.10;;;1.27;;
1436;SDS011;712;51.026;13.792;2023-06-05T04:12:01;5.05;;;1.58;;
1436;SDS011;712;51.026;13.792;2023-06-05T04:14:26;7.43;;;1.50;;
1436;SDS011;712;51.026;13.792;2023-06-05T04:16:51;6.82;;;1.80;;
1436;SDS011;712;51.026;13.792;2023-06-05T04:19:16;6.60;;;1.60;;
1436;SDS011;712;51.026;13.792;2023-06-05T04:21:41;7.97;;;1.80;;
1436;SDS011;712;51.026;13.792;2023-06-05T04:24:08;4.75;;;1.63;;
1436;SDS011;712;51.026;13.792;2023-06-05T04:26:35;5.60;;;1.75;;
1436;SDS011;712;51.026;13.792;2023-06-05T04:29:00;3.92;;;1.42;;
1436;SDS011;712;51.026;13.792;2023-06-05T04:31:28;6.68;;;1.85;;
1436;SDS011;712;51.026;13.792;2023-06-05T04:33:53;6.00;;;1.75;;
1436;SDS011;712;51.026;13.792;2023-06-05T04:36:18;6.38;;;1.73;;
1436;SDS011;712;51.026;13.792;2023-06-05T04:38:44;6.20;;;1.75;;
1436;SDS011;712;51.026;13.792;2023-06-05T04:43:36;7.55;;;1.80;;
1436;SDS011;712;51.026;13.792;2023-06-05T04:46:01;6.77;;;1.47;;
1436;SDS011;712;51.026;13.792;2023-06-05T04:48:26;4.93;;;1.77;;
1436;SDS011;712;51.026;13.792;2023-06-05T04:50:52;13.02;;;2.03;;
1436;SDS011;712;51.026;13.792;2023-06-05T04:53:18;5.75;;;1.92;;
1436;SDS011;712;51.026;13.792;2023-06-05T04:55:43;5.33;;;1.73;;
1436;SDS011;712;51.026;13.792;2023-06-05T04:58:10;8.07;;;1.98;;
1436;SDS011;712;51.026;13.792;2023-06-05T05:00:35;8.10;;;2.28;;
1436;SDS011;712;51.026;13.792;2023-06-05T05:03:00;5.75;;;2.10;;
1436;SDS011;712;51.026;13.792;2023-06-05T05:05:26;6.22;;;1.98;;
1436;SDS011;712;51.026;13.792;2023-06-05T05:07:51;8.70;;;2.23;;
1436;SDS011;712;51.026;13.792;2023-06-05T05:10:16;5.23;;;2.30;;
1436;SDS011;712;51.026;13.792;2023-06-05T05:12:41;5.38;;;2.10;;
1436;SDS011;712;51.026;13.792;2023-06-05T05:15:07;8.93;;;1.88;;
1436;SDS011;712;51.026;13.792;2023-06-05T05:17:32;7.15;;;2.17;;
1436;SDS011;712;51.026;13.792;2023-06-05T05:19:57;9.30;;;2.00;;
1436;SDS011;712;51.026;13.792;2023-06-05T05:22:23;7.30;;;1.90;;
1436;SDS011;712;51.026;13.792;2023-06-05T05:24:48;8.80;;;2.25;;
1436;SDS011;712;51.026;13.792;2023-06-05T05:27:13;6.57;;;2.20;;
1436;SDS011;712;51.026;13.792;2023-06-05T05:29:38;7.63;;;2.23;;
1436;SDS011;712;51.026;13.792;2023-06-05T05:32:03;11.82;;;2.10;;
1436;SDS011;712;51.026;13.792;2023-06-05T05:36:55;9.05;;;2.03;;
1436;SDS011;712;51.026;13.792;2023-06-05T05:39:21;7.80;;;2.10;;
1436;SDS011;712;51.026;13.792;2023-06-05T05:41:46;9.57;;;2.07;;
1436;SDS011;712;51.026;13.792;2023-06-05T05:44:11;9.10;;;2.20;;
1436;SDS011;712;51.026;13.792;2023-06-05T05:46:37;9.63;;;2.88;;
1436;SDS011;712;51.026;13.792;2023-06-05T05:49:02;9.20;;;2.40;;
1436;SDS011;712;51.026;13.792;2023-06-05T05:51:27;8.23;;;2.38;;
1436;SDS011;712;51.026;13.792;2023-06-05T05:53:52;4.93;;;2.17;;
1436;SDS011;712;51.026;13.792;2023-06-05T05:56:17;7.77;;;2.00;;
1436;SDS011;712;51.026;13.792;2023-06-05T05:58:43;7.60;;;2.13;;
1436;SDS011;712;51.026;13.792;2023-06-05T06:01:09;6.07;;;1.95;;
1436;SDS011;712;51.026;13.792;2023-06-05T06:03:34;6.47;;;2.13;;
1436;SDS011;712;51.026;13.792;2023-06-05T06:06:02;8.38;;;2.25;;
1436;SDS011;712;51.026;13.792;2023-06-05T06:08:28;9.38;;;2.17;;
1436;SDS011;712;51.026;13.792;2023-06-05T06:10:53;5.03;;;1.80;;
1436;SDS011;712;51.026;13.792;2023-06-05T06:13:20;6.72;;;2.10;;
1436;SDS011;712;51.026;13.792;2023-06-05T06:15:46;7.28;;;2.08;;
1436;SDS011;712;51.026;13.792;2023-06-05T06:18:11;8.73;;;2.38;;
1436;SDS011;712;51.026;13.792;2023-06-05T06:20:36;5.83;;;2.10;;
1436;SDS011;712;51.026;13.792;2023-06-05T06:23:01;5.18;;;1.67;;
1436;SDS011;712;51.026;13.792;2023-06-05T06:25:27;6.03;;;2.10;;
1436;SDS011;712;51.026;13.792;2023-06-05T06:27:53;10.25;;;2.10;;
1436;SDS011;712;51.026;13.792;2023-06-05T06:30:19;7.53;;;1.80;;
1436;SDS011;712;51.026;13.792;2023-06-05T06:32:45;9.80;;;1.67;;
1436;SDS011;712;51.026;13.792;2023-06-05T06:35:10;7.73;;;1.87;;
1436;SDS011;712;51.026;13.792;2023-06-05T06:37:35;8.60;;;2.08;;
1436;SDS011;712;51.026;13.792;2023-06-05T06:40:00;13.23;;;2.13;;
1436;SDS011;712;51.026;13.792;2023-06-05T06:42:26;7.57;;;2.00;;
1436;SDS011;712;51.026;13.792;2023-06-05T06:44:54;13.75;;;2.13;;
1436;SDS011;712;51.026;13.792;2023-06-05T06:47:21;11.15;;;1.83;;
1436;SDS011;712;51.026;13.792;2023-06-05T06:49:46;9.18;;;2.00;;
1436;SDS011;712;51.026;13.792;2023-06-05T06:52:11;7.93;;;2.00;;
1436;SDS011;712;51.026;13.792;2023-06-05T06:54:37;10.00;;;2.05;;
1436;SDS011;712;51.026;13.792;2023-06-05T06:57:03;9.55;;;2.05;;
1436;SDS011;712;51.026;13.792;2023-06-05T06:59:28;10.80;;;2.20;;
1436;SDS011;712;51.026;13.792;2023-06-05T07:02:12;7.32;;;1.98;;
1436;SDS011;712;51.026;13.792;2023-06-05T07:04:38;10.10;;;2.05;;
1436;SDS011;712;51.026;13.792;2023-06-05T07:07:04;6.03;;;1.90;;
1436;SDS011;712;51.026;13.792;2023-06-05T07:09:29;7.90;;;2.22;;
1436;SDS011;712;51.026;13.792;2023-06-05T07:11:54;9.53;;;2.40;;
1436;SDS011;712;51.026;13.792;2023-06-05T07:14:19;8.33;;;2.00;;
1436;SDS011;712;51.026;13.792;2023-06-05T07:16:45;9.07;;;1.97;;
1436;SDS011;712;51.026;13.792;2023-06-05T07:19:10;8.73;;;2.10;;
1436;SDS011;712;51.026;13.792;2023-06-05T07:21:35;7.67;;;2.00;;
1436;SDS011;712;51.026;13.792;2023-06-05T07:24:03;5.80;;;1.70;;
1436;SDS011;712;51.026;13.792;2023-06-05T07:26:28;6.75;;;1.70;;
1436;SDS011;712;51.026;13.792;2023-06-05T07:28:53;6.07;;;1.67;;
1436;SDS011;712;51.026;13.792;2023-06-05T07:31:18;5.65;;;1.95;;
1436;SDS011;712;51.026;13.792;2023-06-05T07:33:46;6.22;;;1.90;;
1436;SDS011;712;51.026;13.792;2023-06-05T07:36:11;9.65;;;2.00;;
1436;SDS011;712;51.026;13.792;2023-06-05T07:38:36;6.47;;;2.10;;
1436;SDS011;712;51.026;13.792;2023-06-05T07:41:03;6.05;;;1.90;;
1436;SDS011;712;51.026;13.792;2023-06-05T07:43:28;6.75;;;1.90;;
1436;SDS011;712;51.026;13.792;2023-06-05T07:45:53;6.85;;;1.70;;
1436;SDS011;712;51.026;13.792;2023-06-05T07:48:19;7.13;;;1.80;;
1436;SDS011;712;51.026;13.792;2023-06-05T07:50:44;7.57;;;1.77;;
1436;SDS011;712;51.026;13.792;2023-06-05T07:53:09;7.50;;;1.70;;
1436;SDS011;712;51.026;13.792;2023-06-05T07:55:34;7.80;;;2.00;;
1436;SDS011;712;51.026;13.792;2023-06-05T07:58:00;6.88;;;2.05;;
1436;SDS011;712;51.026;13.792;2023-06-05T08:00:26;6.75;;;2.00;;
1436;SDS011;712;51.026;13.792;2023-06-05T08:02:51;10.00;;;1.90;;
1436;SDS011;712;51.026;13.792;2023-06-05T08:05:17;6.53;;;1.83;;
1436;SDS011;712;51.026;13.792;2023-06-05T08:07:42;9.65;;;1.98;;
1436;SDS011;712;51.026;13.792;2023-06-05T08:10:08;6.32;;;1.98;;
1436;SDS011;712;51.026;13.792;2023-06-05T08:12:33;7.53;;;1.80;;
1436;SDS011;712;51.026;13.792;2023-06-05T08:14:58;8.20;;;2.00;;
1436;SDS011;712;51.026;13.792;2023-06-05T08:17:23;8.00;;;2.10;;
1436;SDS011;712;51.026;13.792;2023-06-05T08:19:48;7.38;;;1.90;;
1436;SDS011;712;51.026;13.792;2023-06-05T08:22:14;5.83;;;1.93;;
1436;SDS011;712;51.026;13.792;2023-06-05T08:24:39;5.63;;;2.10;;
1436;SDS011;712;51.026;13.792;2023-06-05T08:27:04;5.83;;;1.80;;
1436;SDS011;712;51.026;13.792;2023-06-05T08:29:30;7.05;;;2.17;;
1436;SDS011;712;51.026;13.792;2023-06-05T08:31:55;8.33;;;2.00;;
1436;SDS011;712;51.026;13.792;2023-06-05T08:34:20;8.53;;;2.30;;
1436;SDS011;712;51.026;13.792;2023-06-05T08:36:45;7.33;;;2.03;;
1436;SDS011;712;51.026;13.792;2023-06-05T08:39:10;6.57;;;2.00;;
1436;SDS011;712;51.026;13.792;2023-06-05T08:41:36;7.25;;;2.47;;
1436;SDS011;712;51.026;13.792;2023-06-05T08:44:02;7.22;;;2.15;;
1436;SDS011;712;51.026;13.792;2023-06-05T08:46:28;7.87;;;2.10;;
1436;SDS011;712;51.026;13.792;2023-06-05T08:48:55;7.07;;;2.10;;
1436;SDS011;712;51.026;13.792;2023-06-05T08:51:21;7.68;;;2.05;;
1436;SDS011;712;51.026;13.792;2023-06-05T08:54:02;7.30;;;2.10;;
1436;SDS011;712;51.026;13.792;2023-06-05T08:56:29;4.13;;;1.83;;
1436;SDS011;712;51.026;13.792;2023-06-05T08:58:56;6.15;;;2.20;;
1436;SDS011;712;51.026;13.792;2023-06-05T09:01:22;5.50;;;2.20;;
1436;SDS011;712;51.026;13.792;2023-06-05T09:03:47;7.22;;;2.22;;
1436;SDS011;712;51.026;13.792;2023-06-05T09:06:12;8.38;;;2.33;;
1436;SDS011;712;51.026;13.792;2023-06-05T09:08:37;4.95;;;1.98;;
1436;SDS011;712;51.026;13.792;2023-06-05T09:13:47;6.43;;;2.50;;
1436;SDS011;712;51.026;13.792;2023-06-05T09:16:12;7.10;;;2.35;;
1436;SDS011;712;51.026;13.792;2023-06-05T09:21:11;6.72;;;2.45;;
1436;SDS011;712;51.026;13.792;2023-06-05T09:23:36;8.20;;;2.50;;
1436;SDS011;712;51.026;13.792;2023-06-05T09:28:28;5.57;;;2.35;;
1436;SDS011;712;51.026;13.792;2023-06-05T09:33:20;5.97;;;2.58;;
1436;SDS011;712;51.026;13.792;2023-06-05T09:35:45;6.50;;;2.43;;
1436;SDS011;712;51.026;13.792;2023-06-05T09:40:38;6.93;;;2.50;;
1436;SDS011;712;51.026;13.792;2023-06-05T09:43:12;9.15;;;2.50;;
1436;SDS011;712;51.026;13.792;2023-06-05T09:45:41;6.75;;;2.63;;
1436;SDS011;712;51.026;13.792;2023-06-05T09:48:13;6.90;;;3.03;;
1436;SDS011;712;51.026;13.792;2023-06-05T09:50:39;5.53;;;2.45;;
1436;SDS011;712;51.026;13.792;2023-06-05T09:55:30;5.00;;;2.55;;
1436;SDS011;712;51.026;13.792;2023-06-05T10:00:21;5.65;;;2.70;;
1436;SDS011;712;51.026;13.792;2023-06-05T10:02:46;6.35;;;2.65;;
1436;SDS011;712;51.026;13.792;2023-06-05T10:07:38;7.18;;;2.33;;
1436;SDS011;712;51.026;13.792;2023-06-05T10:10:08;6.97;;;2.17;;
1436;SDS011;712;51.026;13.792;2023-06-05T10:12:34;7.05;;;2.60;;
1436;SDS011;712;51.026;13.792;2023-06-05T10:14:59;10.98;;;2.55;;
1436;SDS011;712;51.026;13.792;2023-06-05T10:19:51;6.68;;;2.30;;
1436;SDS011;712;51.026;13.792;2023-06-05T10:24:44;5.07;;;2.20;;
1436;SDS011;712;51.026;13.792;2023-06-05T10:32:16;6.63;;;2.42;;
1436;SDS011;712;51.026;13.792;2023-06-05T10:34:48;5.10;;;2.30;;
1436;SDS011;712;51.026;13.792;2023-06-05T10:39:46;5.10;;;2.00;;
1436;SDS011;712;51.026;13.792;2023-06-05T10:42:11;6.97;;;2.40;;
1436;SDS011;712;51.026;13.792;2023-06-05T10:44:43;6.13;;;2.20;;
1436;SDS011;712;51.026;13.792;2023-06-05T10:52:35;5.53;;;2.30;;
1436;SDS011;712;51.026;13.792;2023-06-05T10:55:00;6.05;;;2.22;;
1436;SDS011;712;51.026;13.792;2023-06-05T10:57:27;4.93;;;2.00;;
1436;SDS011;712;51.026;13.792;2023-06-05T11:00:11;5.00;;;2.08;;
1436;SDS011;712;51.026;13.792;2023-06-05T11:02:42;5.28;;;1.92;;
1436;SDS011;712;51.026;13.792;2023-06-05T11:05:11;6.07;;;2.13;;
1436;SDS011;712;51.026;13.792;2023-06-05T11:07:36;7.07;;;2.13;;
1436;SDS011;712;51.026;13.792;2023-06-05T11:15:08;4.95;;;2.40;;
1436;SDS011;712;51.026;13.792;2023-06-05T11:17:40;5.35;;;2.55;;
1436;SDS011;712;51.026;13.792;2023-06-05T11:20:06;5.82;;;2.22;;
1436;SDS011;712;51.026;13.792;2023-06-05T11:32:33;6.22;;;2.10;;
1436;SDS011;712;51.026;13.792;2023-06-05T11:37:24;4.60;;;1.95;;
1436;SDS011;712;51.026;13.792;2023-06-05T11:39:50;5.55;;;2.10;;
1436;SDS011;712;51.026;13.792;2023-06-05T11:42:22;6.07;;;2.13;;
1436;SDS011;712;51.026;13.792;2023-06-05T11:44:48;4.95;;;2.00;;
1436;SDS011;712;51.026;13.792;2023-06-05T11:49:38;5.85;;;2.25;;
1436;SDS011;712;51.026;13.792;2023-06-05T11:54:31;6.75;;;2.03;;
1436;SDS011;712;51.026;13.792;2023-06-05T11:57:04;6.10;;;2.08;;
1436;SDS011;712;51.026;13.792;2023-06-05T11:59:36;4.93;;;1.83;;
1436;SDS011;712;51.026;13.792;2023-06-05T12:02:02;5.45;;;2.10;;
1436;SDS011;712;51.026;13.792;2023-06-05T12:06:53;7.03;;;2.13;;
1436;SDS011;712;51.026;13.792;2023-06-05T12:11:43;6.83;;;2.07;;
1436;SDS011;712;51.026;13.792;2023-06-05T12:14:13;5.63;;;2.20;;
1436;SDS011;712;51.026;13.792;2023-06-05T12:19:10;5.20;;;2.10;;
1436;SDS011;712;51.026;13.792;2023-06-05T12:21:36;5.30;;;2.10;;
1436;SDS011;712;51.026;13.792;2023-06-05T12:26:26;5.00;;;2.17;;
1436;SDS011;712;51.026;13.792;2023-06-05T12:29:05;8.50;;;2.20;;
1436;SDS011;712;51.026;13.792;2023-06-05T12:31:34;6.40;;;2.13;;
1436;SDS011;712;51.026;13.792;2023-06-05T12:34:00;4.80;;;2.10;;
1436;SDS011;712;51.026;13.792;2023-06-05T12:38:50;7.25;;;2.25;;
1436;SDS011;712;51.026;13.792;2023-06-05T12:43:40;7.10;;;2.20;;
1436;SDS011;712;51.026;13.792;2023-06-05T12:48:32;5.47;;;2.22;;
1436;SDS011;712;51.026;13.792;2023-06-05T12:53:23;5.95;;;2.03;;
1436;SDS011;712;51.026;13.792;2023-06-05T12:58:13;5.22;;;2.22;;
1436;SDS011;712;51.026;13.792;2023-06-05T13:03:04;6.20;;;2.30;;
1436;SDS011;712;51.026;13.792;2023-06-05T13:07:54;6.70;;;2.20;;
1436;SDS011;712;51.026;13.792;2023-06-05T13:12:45;5.68;;;2.25;;
1436;SDS011;712;51.026;13.792;2023-06-05T13:17:36;5.60;;;2.10;;
1436;SDS011;712;51.026;13.792;2023-06-05T13:20:02;5.53;;;2.15;;
1436;SDS011;712;51.026;13.792;2023-06-05T13:22:35;5.93;;;2.40;;
1436;SDS011;712;51.026;13.792;2023-06-05T13:27:25;5.57;;;2.10;;
1436;SDS011;712;51.026;13.792;2023-06-05T13:32:15;5.72;;;2.33;;
1436;SDS011;712;51.026;13.792;2023-06-05T13:37:06;7.15;;;2.30;;
1436;SDS011;712;51.026;13.792;2023-06-05T13:41:56;5.05;;;2.10;;
1436;SDS011;712;51.026;13.792;2023-06-05T13:46:46;6.38;;;2.20;;
1436;SDS011;712;51.026;13.792;2023-06-05T13:51:36;8.40;;;2.22;;
1436;SDS011;712;51.026;13.792;2023-06-05T13:54:03;6.65;;;2.50;;
1436;SDS011;712;51.026;13.792;2023-06-05T13:58:53;6.28;;;2.30;;
1436;SDS011;712;51.026;13.792;2023-06-05T14:01:19;5.63;;;2.08;;
1436;SDS011;712;51.026;13.792;2023-06-05T14:03:44;6.27;;;2.20;;
1436;SDS011;712;51.026;13.792;2023-06-05T14:06:11;6.13;;;2.45;;
1436;SDS011;712;51.026;13.792;2023-06-05T14:11:01;6.68;;;2.22;;
1436;SDS011;712;51.026;13.792;2023-06-05T14:15:52;4.97;;;2.13;;
1436;SDS011;712;51.026;13.792;2023-06-05T14:20:42;5.65;;;2.30;;
1436;SDS011;712;51.026;13.792;2023-06-05T14:25:32;7.10;;;2.33;;
1436;SDS011;712;51.026;13.792;2023-06-05T14:30:23;4.78;;;2.15;;
1436;SDS011;712;51.026;13.792;2023-06-05T14:35:13;5.72;;;2.38;;
1436;SDS011;712;51.026;13.792;2023-06-05T14:40:04;4.85;;;2.20;;
1436;SDS011;712;51.026;13.792;2023-06-05T14:42:30;6.78;;;2.30;;
1436;SDS011;712;51.026;13.792;2023-06-05T14:47:20;5.63;;;2.30;;
1436;SDS011;712;51.026;13.792;2023-06-05T14:49:45;6.60;;;1.80;;
1436;SDS011;712;51.026;13.792;2023-06-05T14:54:36;8.18;;;2.72;;
1436;SDS011;712;51.026;13.792;2023-06-05T14:57:01;5.75;;;2.53;;
1436;SDS011;712;51.026;13.792;2023-06-05T15:01:51;5.28;;;2.13;;
1436;SDS011;712;51.026;13.792;2023-06-05T15:04:16;5.53;;;1.95;;
1436;SDS011;712;51.026;13.792;2023-06-05T15:06:41;6.15;;;2.03;;
1436;SDS011;712;51.026;13.792;2023-06-05T15:09:06;7.40;;;2.42;;
1436;SDS011;712;51.026;13.792;2023-06-05T15:13:57;8.10;;;2.60;;
1436;SDS011;712;51.026;13.792;2023-06-05T15:16:22;5.97;;;2.43;;
1436;SDS011;712;51.026;13.792;2023-06-05T15:18:48;5.90;;;2.22;;
1436;SDS011;712;51.026;13.792;2023-06-05T15:21:13;6.50;;;2.07;;
1436;SDS011;712;51.026;13.792;2023-06-05T15:26:04;5.85;;;2.28;;
1436;SDS011;712;51.026;13.792;2023-06-05T15:30:54;4.85;;;1.85;;
1436;SDS011;712;51.026;13.792;2023-06-05T15:35:44;8.05;;;2.55;;
1436;SDS011;712;51.026;13.792;2023-06-05T15:40:35;6.40;;;2.30;;
1436;SDS011;712;51.026;13.792;2023-06-05T15:45:25;6.18;;;1.95;;
1436;SDS011;712;51.026;13.792;2023-06-05T15:47:52;5.50;;;2.03;;
1436;SDS011;712;51.026;13.792;2023-06-05T15:50:17;5.67;;;2.23;;
1436;SDS011;712;51.026;13.792;2023-06-05T15:52:43;5.50;;;2.20;;
1436;SDS011;712;51.026;13.792;2023-06-05T15:55:08;5.72;;;2.40;;
1436;SDS011;712;51.026;13.792;2023-06-05T15:57:33;7.80;;;2.47;;
1436;SDS011;712;51.026;13.792;2023-06-05T15:59:59;5.53;;;2.13;;
1436;SDS011;712;51.026;13.792;2023-06-05T16:02:24;4.87;;;1.90;;
1436;SDS011;712;51.026;13.792;2023-06-05T16:04:50;7.03;;;2.10;;
1436;SDS011;712;51.026;13.792;2023-06-05T16:07:15;12.10;;;2.20;;
1436;SDS011;712;51.026;13.792;2023-06-05T16:09:43;6.85;;;2.22;;
1436;SDS011;712;51.026;13.792;2023-06-05T16:12:08;6.43;;;2.08;;
1436;SDS011;712;51.026;13.792;2023-06-05T16:14:34;6.65;;;2.50;;
1436;SDS011;712;51.026;13.792;2023-06-05T16:16:59;5.57;;;2.10;;
1436;SDS011;712;51.026;13.792;2023-06-05T16:19:24;5.38;;;2.28;;
1436;SDS011;712;51.026;13.792;2023-06-05T16:21:49;5.93;;;2.40;;
1436;SDS011;712;51.026;13.792;2023-06-05T16:24:15;6.40;;;2.30;;
1436;SDS011;712;51.026;13.792;2023-06-05T16:26:40;8.57;;;2.60;;
1436;SDS011;712;51.026;13.792;2023-06-05T16:29:06;7.20;;;2.10;;
1436;SDS011;712;51.026;13.792;2023-06-05T16:31:31;6.40;;;2.30;;
1436;SDS011;712;51.026;13.792;2023-06-05T16:33:56;6.70;;;2.17;;
1436;SDS011;712;51.026;13.792;2023-06-05T16:36:21;5.23;;;2.10;;
1436;SDS011;712;51.026;13.792;2023-06-05T16:38:46;7.23;;;2.30;;
1436;SDS011;712;51.026;13.792;2023-06-05T16:41:11;5.45;;;2.20;;
1436;SDS011;712;51.026;13.792;2023-06-05T16:43:37;5.50;;;2.50;;
1436;SDS011;712;51.026;13.792;2023-06-05T16:46:02;9.40;;;2.57;;
1436;SDS011;712;51.026;13.792;2023-06-05T16:48:27;6.70;;;2.72;;
1436;SDS011;712;51.026;13.792;2023-06-05T16:50:52;5.33;;;2.33;;
1436;SDS011;712;51.026;13.792;2023-06-05T16:53:17;6.67;;;2.37;;
1436;SDS011;712;51.026;13.792;2023-06-05T16:55:44;6.20;;;2.50;;
1436;SDS011;712;51.026;13.792;2023-06-05T16:58:09;9.60;;;2.92;;
1436;SDS011;712;51.026;13.792;2023-06-05T17:00:35;6.73;;;2.60;;
1436;SDS011;712;51.026;13.792;2023-06-05T17:03:01;7.20;;;2.90;;
1436;SDS011;712;51.026;13.792;2023-06-05T17:05:26;8.17;;;2.90;;
1436;SDS011;712;51.026;13.792;2023-06-05T17:07:51;6.70;;;2.50;;
1436;SDS011;712;51.026;13.792;2023-06-05T17:10:16;8.63;;;3.15;;
1436;SDS011;712;51.026;13.792;2023-06-05T17:12:42;5.73;;;2.90;;
1436;SDS011;712;51.026;13.792;2023-06-05T17:15:09;6.57;;;3.08;;
1436;SDS011;712;51.026;13.792;2023-06-05T17:17:36;6.22;;;2.80;;
1436;SDS011;712;51.026;13.792;2023-06-05T17:20:01;7.73;;;3.03;;
1436;SDS011;712;51.026;13.792;2023-06-05T17:22:26;6.30;;;2.77;;
1436;SDS011;712;51.026;13.792;2023-06-05T17:24:52;6.43;;;2.90;;
1436;SDS011;712;51.026;13.792;2023-06-05T17:27:17;6.80;;;3.10;;
1436;SDS011;712;51.026;13.792;2023-06-05T17:29:42;6.57;;;3.00;;
1436;SDS011;712;51.026;13.792;2023-06-05T17:32:08;8.60;;;2.88;;
1436;SDS011;712;51.026;13.792;2023-06-05T17:34:33;7.70;;;3.00;;
1436;SDS011;712;51.026;13.792;2023-06-05T17:36:58;8.93;;;3.33;;
1436;SDS011;712;51.026;13.792;2023-06-05T17:39:24;8.57;;;2.70;;
1436;SDS011;712;51.026;13.792;2023-06-05T17:41:49;11.85;;;3.33;;
1436;SDS011;712;51.026;13.792;2023-06-05T17:44:14;7.50;;;3.03;;
1436;SDS011;712;51.026;13.792;2023-06-05T17:46:40;9.60;;;3.28;;